Time;durP1;ratioP1;P1;durP2;ratioP2;P2;SDS_P1;SDS_P2;PMS_P1;PMS_P2;Temp;Humidity;BMP_temperature;BMP_pressure;BME280_temperature;BME280_humidity;BME280_pressure;Samples;Min_cycle;Max_cycle;Signal;HPM_P1;HPM_P2
2022/03/23 00:01:41;;;;;;;8.23;3.15;;;;;;;6.05;96.71;101297.34;5030437;28;20112;-69
2022/03/23 00:04:07;;;;;;;8.05;3.17;;;;;;;6.42;97.00;101301.09;5030765;28;20030;-68
2022/03/23 00:06:33;;;;;;;6.53;3.33;;;;;;;6.38;96.78;101342.31;5029607;28;20554;-69
2022/03/23 00:09:00;;;;;;;10.95;3.50;;;;;;;6.38;99.48;101333.91;5030721;28;20116;-68
2022/03/23 00:11:25;;;;;;;9.07;3.33;;;;;;;6.08;100.00;101329.34;5030807;28;20545;-68
2022/03/23 00:13:51;;;;;;;8.02;3.42;;;;;;;6.13;100.00;101317.63;5030892;28;20025;-69
2022/03/23 00:16:16;;;;;;;9.40;3.80;;;;;;;5.95;98.63;101310.69;5030620;28;20476;-68
2022/03/23 00:18:42;;;;;;;7.03;3.50;;;;;;;5.87;99.24;101334.13;5030629;28;20099;-68
2022/03/23 00:21:07;;;;;;;8.73;3.58;;;;;;;6.09;99.76;101336.94;5030621;28;20033;-68
2022/03/23 00:23:33;;;;;;;8.60;2.97;;;;;;;5.85;99.71;101329.06;5030971;28;20056;-69
2022/03/23 00:25:59;;;;;;;6.60;3.00;;;;;;;6.04;99.69;101343.59;5030718;28;20106;-69
2022/03/23 00:28:26;;;;;;;7.93;3.13;;;;;;;5.89;99.82;101303.03;5030796;28;20034;-68
2022/03/23 00:30:52;;;;;;;6.47;2.30;;;;;;;6.03;100.00;101316.66;5030511;28;20148;-68
2022/03/23 00:33:17;;;;;;;8.00;2.25;;;;;;;6.19;99.28;101337.03;5030569;28;20167;-67
2022/03/23 00:35:43;;;;;;;7.95;2.60;;;;;;;5.88;98.11;101292.94;5030512;28;20116;-67
2022/03/23 00:38:09;;;;;;;10.13;2.28;;;;;;;6.19;96.14;101332.84;5030328;28;20025;-68
2022/03/23 00:40:36;;;;;;;8.07;3.15;;;;;;;5.97;94.57;101262.75;5030470;28;20452;-67
2022/03/23 00:43:01;;;;;;;11.20;3.67;;;;;;;6.08;93.46;101309.16;5030505;28;20042;-68
2022/03/23 00:45:30;;;;;;;6.25;2.30;;;;;;;6.37;91.88;101340.63;5030528;28;20041;-69
2022/03/23 00:47:57;;;;;;;6.43;2.55;;;;;;;6.16;90.83;101302.50;5030430;28;20570;-68
2022/03/23 00:50:22;;;;;;;8.40;3.85;;;;;;;6.23;88.63;101296.69;5030275;28;20047;-67
2022/03/23 00:52:48;;;;;;;10.38;5.18;;;;;;;6.08;88.94;101296.53;5030489;28;20451;-67
2022/03/23 00:55:15;;;;;;;11.43;4.80;;;;;;;6.02;90.24;101296.47;5030515;28;20470;-68
2022/03/23 00:57:41;;;;;;;14.73;6.20;;;;;;;6.30;89.97;101325.41;5030312;28;20140;-67
2022/03/23 01:02:53;;;;;;;10.38;3.10;;;;;;;6.15;95.12;101338.69;4270092;22;10000702;-72
2022/03/23 01:05:19;;;;;;;7.55;3.20;;;;;;;5.64;97.56;101278.31;5030405;28;20116;-71
2022/03/23 01:07:44;;;;;;;5.88;3.05;;;;;;;6.04;99.33;101312.47;5030380;28;20039;-71
2022/03/23 01:10:12;;;;;;;5.97;2.70;;;;;;;5.76;100.00;101280.13;5034655;28;20033;-72
2022/03/23 01:12:43;;;;;;;11.52;2.63;;;;;;;5.60;98.86;101235.34;5039691;28;20036;-72
2022/03/23 01:15:10;;;;;;;7.32;2.80;;;;;;;5.76;97.80;101255.75;5034377;28;20029;-71
2022/03/23 01:17:37;;;;;;;11.32;2.60;;;;;;;6.13;95.87;101318.47;5033309;28;20586;-72
2022/03/23 01:20:05;;;;;;;6.85;2.80;;;;;;;6.10;95.82;101328.53;5034102;28;20033;-73
2022/03/23 01:22:31;;;;;;;6.63;2.60;;;;;;;5.89;96.62;101282.84;5032519;28;20075;-71
2022/03/23 01:24:56;;;;;;;9.18;2.75;;;;;;;5.85;95.96;101286.16;5034099;28;20026;-72
2022/03/23 01:27:21;;;;;;;5.10;2.30;;;;;;;5.64;95.31;101267.34;5034088;28;20029;-71
2022/03/23 01:29:47;;;;;;;6.43;2.60;;;;;;;5.96;93.88;101271.97;5032710;28;20061;-72
2022/03/23 01:32:12;;;;;;;4.60;2.20;;;;;;;6.11;92.30;101312.56;5034069;28;20068;-71
2022/03/23 01:34:38;;;;;;;4.60;2.17;;;;;;;6.28;88.74;101320.31;5033932;28;20029;-72
2022/03/23 01:37:03;;;;;;;5.78;2.50;;;;;;;5.83;89.65;101270.16;5031991;28;20090;-72
2022/03/23 01:39:29;;;;;;;6.20;2.80;;;;;;;6.14;91.36;101326.88;5033678;28;20040;-72
2022/03/23 01:41:55;;;;;;;7.93;2.80;;;;;;;6.10;93.65;101310.03;5033371;28;20056;-72
2022/03/23 01:44:24;;;;;;;6.82;3.00;;;;;;;6.42;91.96;101317.97;5033293;28;20053;-71
2022/03/23 01:47:13;;;;;;;6.28;2.75;;;;;;;6.21;91.79;101313.50;5033814;28;20502;-73
2022/03/23 01:49:41;;;;;;;5.80;2.63;;;;;;;6.16;94.82;101327.75;5033417;28;20029;-71
2022/03/23 01:52:09;;;;;;;5.65;2.67;;;;;;;6.14;92.61;101305.00;5033440;28;20025;-72
2022/03/23 01:54:36;;;;;;;6.72;2.80;;;;;;;5.96;91.64;101324.16;5032999;28;20423;-71
2022/03/23 01:57:03;;;;;;;5.85;2.63;;;;;;;6.11;91.73;101324.31;5033071;28;20040;-71
2022/03/23 01:59:29;;;;;;;8.18;2.53;;;;;;;6.09;90.48;101308.31;5033099;28;20406;-72
2022/03/23 02:01:55;;;;;;;5.60;2.65;;;;;;;5.90;90.92;101311.47;5031594;28;20045;-71
2022/03/23 02:04:21;;;;;;;4.50;2.38;;;;;;;5.36;91.59;101213.19;5033322;28;20159;-72
2022/03/23 02:06:48;;;;;;;5.20;2.55;;;;;;;5.80;91.59;101257.47;5033797;28;20030;-72
2022/03/23 02:09:17;;;;;;;7.03;2.95;;;;;;;5.80;89.47;101262.50;5040187;28;20025;-71
2022/03/23 02:11:45;;;;;;;6.60;2.53;;;;;;;5.99;88.91;101258.56;5033193;28;20034;-73
2022/03/23 02:14:11;;;;;;;7.20;2.53;;;;;;;6.21;87.88;101318.56;5033114;28;20033;-71
2022/03/23 02:16:46;;;;;;;5.97;2.70;;;;;;;5.77;88.35;101267.53;5032939;28;20124;-74
2022/03/23 02:19:12;;;;;;;8.13;2.65;;;;;;;5.98;90.38;101313.22;5031528;28;20053;-71
2022/03/23 02:21:42;;;;;;;6.60;2.35;;;;;;;5.98;89.61;101320.78;5030993;28;20053;-71
2022/03/23 02:24:08;;;;;;;9.18;2.88;;;;;;;5.99;91.65;101314.09;5032527;28;20037;-72
2022/03/23 02:26:33;;;;;;;8.48;2.90;;;;;;;6.04;91.19;101310.78;5032842;28;20032;-72
2022/03/23 02:29:00;;;;;;;5.13;2.58;;;;;;;5.66;91.01;101261.50;5032953;28;20116;-72
2022/03/23 02:31:26;;;;;;;5.97;2.70;;;;;;;5.50;91.34;101257.09;5032928;28;20026;-72
2022/03/23 02:33:52;;;;;;;4.82;2.30;;;;;;;5.58;91.62;101254.66;5032742;28;20180;-72
2022/03/23 02:36:17;;;;;;;7.40;2.33;;;;;;;5.64;91.11;101318.66;5031120;28;20132;-71
2022/03/23 02:38:43;;;;;;;8.13;2.78;;;;;;;5.11;94.11;101281.75;5032467;28;20112;-72
2022/03/23 02:41:09;;;;;;;7.10;2.50;;;;;;;5.25;92.78;101285.28;5032715;28;20040;-73
2022/03/23 02:43:34;;;;;;;4.20;2.40;;;;;;;5.99;91.49;101304.00;5032679;28;20053;-72
2022/03/23 02:46:00;;;;;;;5.70;2.40;;;;;;;5.59;87.79;101294.19;5032472;28;20447;-72
2022/03/23 02:48:25;;;;;;;6.40;2.20;;;;;;;5.66;86.54;101314.47;5032883;28;20435;-71
2022/03/23 02:50:50;;;;;;;5.25;2.10;;;;;;;5.40;85.73;101242.66;5032384;28;20171;-72
2022/03/23 03:01:54;;;;;;;3.90;2.22;;;;;;;5.82;88.49;101320.56;5012107;28;20614;-71
2022/03/23 03:04:24;;;;;;;5.25;2.30;;;;;;;5.32;89.60;101281.19;5011165;28;20036;-72
2022/03/23 03:06:50;;;;;;;5.82;2.55;;;;;;;5.09;86.87;101278.38;5012264;28;20117;-72
2022/03/23 03:09:16;;;;;;;5.40;2.58;;;;;;;5.18;87.67;101309.59;5012775;28;20030;-73
2022/03/23 03:11:43;;;;;;;7.32;2.75;;;;;;;5.10;86.85;101270.81;5037127;28;20036;-73
2022/03/23 03:14:10;;;;;;;6.68;2.33;;;;;;;5.29;86.50;101323.19;5037790;28;20032;-72
2022/03/23 03:16:35;;;;;;;6.15;2.42;;;;;;;5.17;87.09;101305.34;5038447;28;20033;-72
2022/03/23 03:19:03;;;;;;;6.13;2.30;;;;;;;5.07;88.72;101326.19;5038310;28;20475;-72
2022/03/23 03:21:30;;;;;;;7.72;2.42;;;;;;;5.09;87.76;101265.75;5037738;28;20490;-73
2022/03/23 03:23:55;;;;;;;4.60;2.15;;;;;;;4.93;89.71;101319.25;5042359;28;20111;-72
2022/03/23 03:26:21;;;;;;;5.97;2.38;;;;;;;5.17;89.71;101315.44;5049707;28;20118;-71
2022/03/23 03:28:48;;;;;;;7.50;2.60;;;;;;;5.17;90.81;101317.09;5057771;28;20024;-73
2022/03/23 03:31:15;;;;;;;6.88;2.38;;;;;;;5.47;89.82;101335.22;5058455;28;20032;-72
2022/03/23 03:33:40;;;;;;;4.68;2.20;;;;;;;5.18;90.98;101319.66;5056353;28;20033;-72
2022/03/23 03:36:06;;;;;;;5.93;2.72;;;;;;;5.38;90.28;101332.56;5046426;28;20029;-73
2022/03/23 03:38:33;;;;;;;5.40;2.70;;;;;;;5.25;91.80;101330.66;5049856;28;20036;-71
2022/03/23 03:40:58;;;;;;;7.03;3.25;;;;;;;4.92;92.71;101269.69;5049652;28;20132;-72
2022/03/23 03:43:24;;;;;;;8.98;3.70;;;;;;;5.17;94.13;101300.31;5051342;28;20025;-73
2022/03/23 03:45:51;;;;;;;8.00;3.75;;;;;;;4.90;94.52;101286.44;5051437;28;20083;-73
2022/03/23 03:48:20;;;;;;;7.75;2.97;;;;;;;4.99;94.39;101277.34;5050992;28;20036;-70
2022/03/23 03:50:46;;;;;;;6.90;3.05;;;;;;;4.93;92.71;101249.53;5051100;28;20115;-69
2022/03/23 03:53:11;;;;;;;7.90;2.72;;;;;;;5.28;92.14;101308.91;5050910;28;20115;-71
2022/03/23 03:55:38;;;;;;;6.97;2.67;;;;;;;4.93;92.72;101252.06;5050494;28;20036;-71
2022/03/23 03:58:05;;;;;;;5.80;3.10;;;;;;;5.07;90.66;101257.34;5050953;28;20516;-71
2022/03/23 04:00:34;;;;;;;5.95;2.70;;;;;;;5.13;90.63;101264.97;5049751;28;20025;-69
2022/03/23 04:03:00;;;;;;;7.75;3.00;;;;;;;5.35;89.34;101324.94;5029939;28;20037;-72
2022/03/23 04:05:25;;;;;;;6.45;2.55;;;;;;;5.39;88.82;101313.25;5030885;28;20503;-71
2022/03/23 04:07:51;;;;;;;7.93;3.10;;;;;;;5.49;87.44;101332.69;5029567;28;20029;-72
2022/03/23 04:10:16;;;;;;;9.05;3.58;;;;;;;5.20;88.55;101307.94;5030476;28;20037;-71
2022/03/23 04:12:41;;;;;;;7.60;3.25;;;;;;;5.01;88.71;101269.84;5030930;28;20475;-72
2022/03/23 04:15:07;;;;;;;6.47;3.30;;;;;;;4.69;89.55;101220.63;5030874;28;20056;-71
2022/03/23 04:17:33;;;;;;;6.70;3.42;;;;;;;5.43;88.78;101335.16;5029267;28;20029;-72
2022/03/23 04:19:58;;;;;;;6.90;3.20;;;;;;;4.85;87.55;101233.47;5031009;28;20112;-72
2022/03/23 04:22:24;;;;;;;8.38;3.28;;;;;;;5.36;87.06;101324.13;5030770;28;20037;-71
2022/03/23 04:24:49;;;;;;;7.45;3.10;;;;;;;5.19;84.95;101270.09;5030405;28;20079;-72
2022/03/23 04:27:15;;;;;;;6.22;3.03;;;;;;;5.03;86.34;101274.06;5030770;28;20036;-71
2022/03/23 04:29:40;;;;;;;11.13;3.47;;;;;;;5.21;85.65;101307.09;5029437;28;20112;-72
2022/03/23 04:32:07;;;;;;;9.90;3.67;;;;;;;4.94;87.61;101281.47;5030522;28;20030;-71
2022/03/23 04:34:34;;;;;;;5.75;3.70;;;;;;;5.15;87.73;101337.25;5029348;28;20034;-69
2022/03/23 04:37:00;;;;;;;5.90;3.72;;;;;;;5.15;88.89;101338.94;5028910;28;20033;-70
2022/03/23 04:39:26;;;;;;;8.73;4.00;;;;;;;5.25;89.88;101330.66;5030132;28;20037;-70
2022/03/23 04:41:51;;;;;;;7.88;3.97;;;;;;;5.40;89.79;101328.41;5030469;28;20033;-70
2022/03/23 04:44:17;;;;;;;6.93;4.10;;;;;;;5.41;90.15;101346.91;5029386;28;20025;-69
2022/03/23 04:46:42;;;;;;;7.95;4.15;;;;;;;6.79;84.09;101323.34;5033281;28;20045;-72
2022/03/23 04:49:08;;;;;;;9.07;5.03;;;;;;;9.50;67.25;101322.69;5034549;28;20056;-71
2022/03/23 04:51:34;;;;;;;9.43;4.93;;;;;;;6.43;72.71;101323.00;5034287;28;20033;-71
2022/03/23 04:54:02;;;;;;;9.43;4.28;;;;;;;4.83;80.38;101227.53;5033770;28;20114;-71
2022/03/23 04:56:28;;;;;;;9.90;4.43;;;;;;;5.60;82.71;101344.66;5032898;28;20025;-71
2022/03/23 04:58:54;;;;;;;9.93;4.10;;;;;;;5.46;80.46;101279.72;5033931;28;20068;-76
2022/03/23 05:01:21;;;;;;;8.23;3.50;;;;;;;5.73;77.35;101320.44;5034236;28;20033;-73
2022/03/23 05:03:46;;;;;;;8.05;3.30;;;;;;;5.22;78.03;101222.25;5034300;28;20049;-73
2022/03/23 05:06:11;;;;;;;9.02;3.35;;;;;;;5.49;75.84;101270.53;5034036;28;20039;-72
2022/03/23 05:08:37;;;;;;;6.72;4.07;;;;;;;6.00;77.21;101338.50;5032483;28;20368;-71
2022/03/23 05:11:02;;;;;;;7.38;3.70;;;;;;;6.07;77.63;101341.13;5034257;28;20036;-71
2022/03/23 05:13:28;;;;;;;6.95;4.05;;;;;;;5.41;77.31;101231.75;5033928;28;20144;-71
2022/03/23 05:15:53;;;;;;;7.97;3.72;;;;;;;5.70;75.47;101260.72;5032523;28;20525;-71
2022/03/23 05:18:19;;;;;;;7.18;3.92;;;;;;;5.89;72.47;101282.00;5034017;28;20025;-71
2022/03/23 05:20:45;;;;;;;7.82;4.50;;;;;;;6.31;70.84;101335.50;5033623;28;20035;-73
2022/03/23 05:23:10;;;;;;;9.45;4.43;;;;;;;6.54;70.70;101343.31;5033445;28;20036;-71
2022/03/23 05:25:36;;;;;;;8.77;4.60;;;;;;;6.64;68.63;101338.38;5033453;28;20033;-71
2022/03/23 05:28:02;;;;;;;9.82;4.50;;;;;;;6.44;67.42;101284.28;5033165;28;20045;-71
2022/03/23 05:30:27;;;;;;;7.43;4.32;;;;;;;7.16;72.84;101338.84;5019251;28;20080;-71
2022/03/23 05:32:52;;;;;;;8.50;4.00;;;;;;;7.01;66.50;101299.94;5012647;28;20030;-73
2022/03/23 05:35:18;;;;;;;11.73;4.28;;;;;;;6.99;63.81;101227.50;5012578;28;20026;-71
2022/03/23 05:37:43;;;;;;;9.50;3.88;;;;;;;7.53;60.50;101287.66;5013391;28;20120;-70
2022/03/23 05:40:10;;;;;;;8.50;4.00;;;;;;;7.94;59.26;101349.47;5019959;28;20105;-71
2022/03/23 05:42:36;;;;;;;12.25;5.50;;;;;;;8.49;57.78;101338.72;5023622;28;20057;-72
2022/03/23 05:45:01;;;;;;;11.45;5.35;;;;;;;8.34;59.49;101272.78;5033294;28;20033;-70
2022/03/23 05:47:27;;;;;;;7.70;4.30;;;;;;;8.06;57.34;101273.53;5051593;28;20469;-71
2022/03/23 05:49:52;;;;;;;12.45;5.15;;;;;;;8.50;57.04;101284.66;5050662;28;20036;-70
2022/03/23 05:52:18;;;;;;;18.25;10.02;;;;;;;8.52;56.75;101239.88;5033489;28;20026;-70
2022/03/23 05:54:43;;;;;;;12.48;6.68;;;;;;;8.52;57.06;101333.66;5012897;28;20507;-71
2022/03/23 05:57:09;;;;;;;11.48;7.43;;;;;;;9.49;56.18;101342.13;5012541;28;20030;-68
2022/03/23 05:59:34;;;;;;;10.38;8.13;;;;;;;9.80;53.78;101329.38;5010510;28;20034;-71
2022/03/23 06:02:00;;;;;;;23.58;13.25;;;;;;;9.76;53.65;101336.16;5012606;28;20034;-71
2022/03/23 06:04:26;;;;;;;25.25;16.05;;;;;;;9.46;52.95;101308.31;5011649;28;20033;-71
2022/03/23 06:06:52;;;;;;;12.18;8.65;;;;;;;9.76;52.04;101308.22;5012795;28;20026;-70
2022/03/23 06:09:19;;;;;;;10.73;5.95;;;;;;;10.02;51.11;101270.84;5013075;28;20488;-71
2022/03/23 06:11:44;;;;;;;75.38;41.47;;;;;;;9.22;50.58;101239.84;5013321;28;20107;-72
2022/03/23 06:14:10;;;;;;;31.88;16.17;;;;;;;9.39;51.16;101277.00;5013577;28;20077;-70
2022/03/23 06:16:35;;;;;;;38.72;25.23;;;;;;;9.45;50.31;101268.53;5013325;28;20121;-72
2022/03/23 06:19:01;;;;;;;30.90;17.15;;;;;;;10.76;49.84;101328.91;5012994;28;20119;-71
2022/03/23 06:21:26;;;;;;;14.50;9.00;;;;;;;10.68;49.17;101312.00;5012887;28;20030;-71
2022/03/23 06:23:51;;;;;;;8.48;4.35;;;;;;;9.98;47.19;101255.66;5013198;28;20048;-71
2022/03/23 06:26:17;;;;;;;11.10;6.30;;;;;;;10.41;48.91;101329.16;5012969;28;20040;-72
2022/03/23 06:28:42;;;;;;;14.07;10.77;;;;;;;11.26;46.99;101301.34;5012934;28;20441;-71
2022/03/23 06:31:08;;;;;;;9.20;4.97;;;;;;;11.45;46.18;101307.09;5013211;28;20109;-71
2022/03/23 06:33:34;;;;;;;6.35;3.97;;;;;;;9.94;47.95;101340.34;5013608;28;20119;-71
2022/03/23 06:35:59;;;;;;;6.28;2.80;;;;;;;9.73;47.95;101277.75;5032344;28;20037;-70
2022/03/23 06:38:25;;;;;;;3.90;2.67;;;;;;;9.99;48.37;101242.94;5032711;28;20036;-71
2022/03/23 06:40:50;;;;;;;6.95;4.30;;;;;;;9.50;47.65;101237.22;5032701;28;20036;-70
2022/03/23 06:43:16;;;;;;;9.55;4.78;;;;;;;10.38;46.17;101351.16;5032574;28;20029;-70
2022/03/23 06:45:42;;;;;;;8.43;5.70;;;;;;;10.45;45.51;101274.88;5032720;28;20415;-68
2022/03/23 06:48:08;;;;;;;10.23;4.75;;;;;;;10.59;45.45;101332.41;5032419;28;20487;-70
2022/03/23 06:50:34;;;;;;;8.23;4.40;;;;;;;10.38;44.43;101246.94;5032911;28;20143;-70
2022/03/23 06:53:00;;;;;;;9.57;4.40;;;;;;;10.13;43.73;101309.81;5032231;28;20148;-71
2022/03/23 06:55:26;;;;;;;6.93;4.38;;;;;;;9.80;44.89;101315.00;5032227;28;20060;-71
2022/03/23 06:57:51;;;;;;;5.95;3.92;;;;;;;10.43;43.65;101350.31;5030802;28;20542;-70
2022/03/23 07:00:17;;;;;;;9.48;3.88;;;;;;;10.24;43.74;101284.34;5032062;28;20033;-71
2022/03/23 07:02:44;;;;;;;9.43;4.88;;;;;;;10.00;43.35;101345.41;5032044;28;20049;-70
2022/03/23 07:05:11;;;;;;;5.03;3.60;;;;;;;10.73;42.11;101284.84;5032114;28;20113;-70
2022/03/23 07:07:37;;;;;;;6.60;4.10;;;;;;;10.94;42.40;101289.75;5031608;28;20033;-71
2022/03/23 07:10:04;;;;;;;9.48;4.75;;;;;;;12.02;41.14;101331.13;5031799;28;20098;-71
2022/03/23 07:12:30;;;;;;;6.63;4.20;;;;;;;10.62;40.31;101243.41;5032025;28;20033;-71
2022/03/23 07:14:55;;;;;;;12.55;4.18;;;;;;;10.72;40.24;101278.91;5030545;28;20445;-71
2022/03/23 07:17:20;;;;;;;6.82;3.55;;;;;;;11.07;41.05;101291.38;5031610;28;20034;-71
2022/03/23 07:19:46;;;;;;;12.85;4.50;;;;;;;12.78;39.30;101329.22;5031596;28;20165;-70
2022/03/23 07:22:12;;;;;;;5.68;3.80;;;;;;;11.68;39.06;101348.50;5031570;28;20033;-70
2022/03/23 07:24:37;;;;;;;6.93;3.63;;;;;;;10.42;39.26;101284.22;5031569;28;20035;-70
2022/03/23 07:27:03;;;;;;;8.50;4.35;;;;;;;11.45;40.51;101293.53;5031711;28;20025;-71
2022/03/23 07:29:29;;;;;;;5.93;3.50;;;;;;;10.98;39.28;101302.47;5031522;28;20029;-71
2022/03/23 07:31:54;;;;;;;6.85;3.58;;;;;;;11.29;39.49;101331.88;5031265;28;20029;-71
2022/03/23 07:34:20;;;;;;;6.20;3.90;;;;;;;11.89;39.02;101342.31;5031354;28;20087;-71
2022/03/23 07:36:48;;;;;;;3.72;2.70;;;;;;;11.08;38.84;101270.13;5031046;28;20133;-71
2022/03/23 07:39:20;;;;;;;5.40;3.15;;;;;;;11.06;39.58;101332.91;5031374;28;20120;-70
2022/03/23 07:41:53;;;;;;;6.70;3.60;;;;;;;10.51;38.92;101274.00;5031340;28;20022;-71
2022/03/23 07:44:19;;;;;;;4.97;3.35;;;;;;;11.15;40.78;101343.03;5031017;28;20025;-71
2022/03/23 07:46:45;;;;;;;7.80;4.25;;;;;;;12.72;39.79;101325.91;5029897;28;20037;-70
2022/03/23 07:49:12;;;;;;;7.82;4.30;;;;;;;12.85;39.34;101301.91;5030003;28;20542;-71
2022/03/23 07:51:39;;;;;;;6.65;5.00;;;;;;;11.07;39.58;101332.91;5030219;28;20033;-71
2022/03/23 07:54:04;;;;;;;8.02;5.07;;;;;;;11.39;38.45;101229.94;5031240;28;20537;-71
2022/03/23 07:56:30;;;;;;;7.20;3.90;;;;;;;11.90;39.87;101304.09;5030985;28;20112;-70
2022/03/23 07:58:55;;;;;;;9.23;4.05;;;;;;;10.98;38.88;101310.09;5030834;28;20021;-70
2022/03/23 08:01:20;;;;;;;6.63;3.13;;;;;;;11.79;39.21;101323.75;5030979;28;20072;-71
2022/03/23 08:03:46;;;;;;;10.43;5.50;;;;;;;10.77;39.45;101256.84;5030445;28;20047;-72
2022/03/23 08:06:12;;;;;;;6.57;3.45;;;;;;;11.96;37.98;101321.84;5029631;28;20048;-71
2022/03/23 08:08:38;;;;;;;7.82;3.40;;;;;;;12.08;36.87;101275.81;5019240;28;20033;-72
2022/03/23 08:11:04;;;;;;;5.80;3.45;;;;;;;11.95;38.39;101312.53;5025764;28;20025;-72
2022/03/23 08:13:29;;;;;;;8.48;4.80;;;;;;;12.69;37.89;101283.44;5030823;28;20037;-71
2022/03/23 08:15:55;;;;;;;6.60;3.67;;;;;;;11.99;36.50;101231.75;5030744;28;20029;-72
2022/03/23 08:18:21;;;;;;;7.50;3.60;;;;;;;11.66;36.81;101257.66;5030406;28;20033;-71
2022/03/23 08:20:48;;;;;;;6.82;3.35;;;;;;;12.17;35.91;101285.03;5029807;28;20090;-72
2022/03/23 08:23:16;;;;;;;37.20;23.42;;;;;;;12.64;36.49;101292.84;5030932;28;20029;-71
2022/03/23 08:25:46;;;;;;;5.18;3.40;;;;;;;12.06;35.58;101239.28;5030655;28;20029;-71
2022/03/23 08:28:14;;;;;;;5.63;3.72;;;;;;;12.59;38.25;101296.34;5030651;28;20033;-71
2022/03/23 08:30:41;;;;;;;9.00;5.13;;;;;;;12.73;36.38;101292.72;5010631;28;20029;-72
2022/03/23 08:33:07;;;;;;;4.80;2.88;;;;;;;13.11;35.82;101283.63;5010623;28;20053;-71
2022/03/23 08:35:32;;;;;;;5.38;3.03;;;;;;;12.59;35.34;101240.22;5011158;28;20068;-71
2022/03/23 08:37:58;;;;;;;6.25;2.92;;;;;;;12.21;36.43;101210.19;5010691;28;20038;-70
2022/03/23 08:40:24;;;;;;;7.47;5.38;;;;;;;14.07;34.87;101222.06;5008560;28;20025;-71
2022/03/23 08:42:49;;;;;;;6.55;2.97;;;;;;;12.48;34.23;101277.81;5009823;28;20492;-71
2022/03/23 08:45:15;;;;;;;7.03;2.60;;;;;;;13.51;34.47;101292.28;5010711;28;20022;-70
2022/03/23 08:47:42;;;;;;;9.43;4.88;;;;;;;13.07;35.31;101265.78;5010355;28;20484;-70
2022/03/23 08:50:10;;;;;;;4.78;3.20;;;;;;;12.55;34.90;101225.84;5010759;28;20036;-71
2022/03/23 08:52:36;;;;;;;7.35;3.15;;;;;;;13.98;34.12;101270.88;5010649;28;20030;-71
2022/03/23 08:55:09;;;;;;;4.70;3.17;;;;;;;14.07;34.63;101204.16;5029463;28;20037;-71
2022/03/23 08:57:36;;;;;;;5.25;2.70;;;;;;;13.41;33.50;101258.34;5030334;28;20033;-70
2022/03/23 09:00:05;;;;;;;9.93;3.22;;;;;;;15.14;32.29;101256.16;5029781;28;20079;-71
2022/03/23 09:02:31;;;;;;;5.80;2.92;;;;;;;13.73;32.90;101253.47;5030154;28;20542;-71
2022/03/23 09:04:56;;;;;;;7.63;3.72;;;;;;;13.79;32.99;101203.94;5029024;28;20028;-71
2022/03/23 09:07:22;;;;;;;6.13;3.35;;;;;;;13.80;33.28;101232.03;5028677;28;20053;-71
2022/03/23 09:09:47;;;;;;;7.00;3.60;;;;;;;14.86;32.12;101247.50;5030157;28;20546;-69
2022/03/23 09:12:13;;;;;;;13.68;3.67;;;;;;;14.26;33.12;101249.75;5030172;28;20108;-71
2022/03/23 09:14:39;;;;;;;12.32;3.95;;;;;;;15.07;32.02;101177.81;5029892;28;20120;-71
2022/03/23 09:17:04;;;;;;;7.82;2.88;;;;;;;14.00;33.79;101258.88;5028813;28;20391;-71
2022/03/23 09:19:30;;;;;;;4.30;2.58;;;;;;;13.88;33.84;101234.44;5025545;28;20064;-70
2022/03/23 09:21:55;;;;;;;6.18;3.22;;;;;;;13.87;33.86;101199.50;5009783;28;20037;-70
2022/03/23 09:24:21;;;;;;;4.10;2.55;;;;;;;13.91;33.34;101247.97;5010493;28;20076;-71
2022/03/23 09:26:47;;;;;;;5.13;2.75;;;;;;;12.82;33.90;101195.59;5010438;28;20065;-71
2022/03/23 09:29:12;;;;;;;7.18;3.95;;;;;;;14.98;32.23;101197.69;5009862;28;20557;-70
2022/03/23 09:31:39;;;;;;;8.20;3.40;;;;;;;13.04;33.87;101201.19;5010101;28;20118;-70
2022/03/23 09:34:05;;;;;;;4.95;2.83;;;;;;;13.06;34.22;101189.22;5014102;28;20053;-71
2022/03/23 09:39:16;;;;;;;4.45;2.30;;;;;;;13.82;33.95;101244.78;5014189;28;20128;-71
2022/03/23 09:41:45;;;;;;;4.65;3.10;;;;;;;14.67;33.75;101184.84;5031486;28;20064;-71
2022/03/23 09:44:10;;;;;;;6.93;2.80;;;;;;;15.69;32.33;101221.38;5032215;28;20022;-72
2022/03/23 09:46:36;;;;;;;7.18;3.13;;;;;;;14.11;32.79;101224.53;5033121;28;20128;-71
2022/03/23 09:49:02;;;;;;;9.60;5.07;;;;;;;14.83;33.40;101227.09;5032133;28;20527;-70
2022/03/23 09:51:31;;;;;;;6.00;3.13;;;;;;;14.06;33.24;101241.72;5029010;28;20048;-71
2022/03/23 09:53:58;;;;;;;7.38;3.70;;;;;;;14.81;33.84;101185.34;5027954;28;20476;-72
2022/03/23 09:56:23;;;;;;;4.70;3.20;;;;;;;14.84;33.29;101157.06;5012874;28;20145;-71
2022/03/23 09:58:48;;;;;;;7.65;4.68;;;;;;;14.88;34.25;101211.59;5013457;28;20547;-71
2022/03/23 10:01:26;;;;;;;13.25;6.50;;;;;;;14.01;34.30;101225.59;5012912;28;20085;-70
2022/03/23 10:04:20;;;;;;;6.93;3.75;;;;;;;14.93;34.44;101231.13;5012776;28;20068;-71
2022/03/23 10:07:12;;;;;;;7.13;3.10;;;;;;;14.41;32.73;101220.47;4994684;28;20334;-70
2022/03/23 10:10:08;;;;;;;8.57;3.95;;;;;;;15.26;34.52;101221.69;5013116;28;20397;-70
2022/03/23 10:13:11;;;;;;;6.88;3.70;;;;;;;14.71;33.27;101218.00;5013286;28;20472;-69
2022/03/23 10:15:54;;;;;;;5.82;3.15;;;;;;;15.01;32.79;101210.41;5013297;28;20038;-71
2022/03/23 10:18:48;;;;;;;6.40;4.00;;;;;;;15.28;34.29;101205.38;5031393;28;20076;-69
2022/03/23 10:21:14;;;;;;;8.43;3.53;;;;;;;14.01;34.91;101119.91;5032450;28;20037;-70
2022/03/23 10:23:59;;;;;;;9.27;4.40;;;;;;;14.74;33.87;101201.72;5031478;28;20040;-72
2022/03/23 10:26:25;;;;;;;11.15;4.05;;;;;;;14.89;33.49;101175.72;5032831;28;20044;-71
2022/03/23 10:28:51;;;;;;;8.60;4.07;;;;;;;15.84;32.82;101083.25;5032674;28;20034;-70
2022/03/23 10:31:19;;;;;;;6.38;3.70;;;;;;;14.66;34.57;101191.66;5032813;28;20052;-72
2022/03/23 10:33:59;;;;;;;7.35;4.13;;;;;;;15.01;33.38;101195.91;5032508;28;20124;-70
2022/03/23 10:36:27;;;;;;;7.90;3.80;;;;;;;15.65;33.51;101171.06;5031235;28;20455;-70
2022/03/23 10:39:03;;;;;;;9.48;6.88;;;;;;;15.76;33.23;101177.53;5031179;28;20483;-70
2022/03/23 10:41:29;;;;;;;7.38;3.60;;;;;;;14.66;33.37;101114.03;5026645;28;20036;-69
2022/03/23 10:43:55;;;;;;;6.85;3.90;;;;;;;14.38;33.57;101067.03;5011141;28;20049;-69
2022/03/23 10:46:21;;;;;;;14.02;8.27;;;;;;;15.28;33.60;101154.16;5012102;28;20069;-70
2022/03/23 10:49:01;;;;;;;7.18;4.20;;;;;;;15.34;33.58;101145.44;5012890;28;20033;-70
2022/03/23 10:51:35;;;;;;;4.90;3.15;;;;;;;15.12;32.89;101100.81;5011360;28;20025;-71
2022/03/23 10:54:20;;;;;;;7.65;2.75;;;;;;;15.58;31.42;101122.53;5025043;28;20060;-70
2022/03/23 10:56:46;;;;;;;8.32;5.30;;;;;;;16.47;30.33;101131.63;5031148;28;20099;-71
2022/03/23 10:59:22;;;;;;;5.43;2.88;;;;;;;15.92;30.91;101150.56;5032034;28;20025;-71
2022/03/23 11:02:02;;;;;;;7.28;3.20;;;;;;;16.65;30.37;101081.41;5032161;28;20041;-70
2022/03/23 11:04:35;;;;;;;5.45;3.67;;;;;;;16.55;30.53;101132.25;5030533;28;20053;-70
2022/03/23 11:07:02;;;;;;;6.95;5.20;;;;;;;16.40;30.69;101127.63;5031972;28;20410;-72
2022/03/23 11:18:05;;;;;;;6.15;3.05;;;;;;;17.14;29.67;101118.16;5016703;28;20516;-71
2022/03/23 11:20:53;;;;;;;5.95;3.00;;;;;;;16.39;31.08;101118.22;5030400;28;20030;-70
2022/03/23 11:23:23;;;;;;;4.80;3.20;;;;;;;17.00;30.13;101107.53;5031511;28;20030;-70
2022/03/23 11:26:01;;;;;;;5.35;3.03;;;;;;;16.59;29.02;101120.16;5024555;28;20033;-69
2022/03/23 11:28:34;;;;;;;3.50;2.50;;;;;;;17.47;28.57;101092.06;5030268;28;20032;-72
2022/03/23 11:31:04;;;;;;;4.05;2.70;;;;;;;17.78;26.51;101054.84;5031146;28;20435;-73
2022/03/23 11:33:32;;;;;;;5.53;2.22;;;;;;;17.07;26.47;101077.31;5031440;28;20026;-72
2022/03/23 11:35:58;;;;;;;5.53;3.05;;;;;;;17.57;26.16;100998.28;5031382;28;20029;-71
2022/03/23 11:38:29;;;;;;;4.82;2.60;;;;;;;16.51;27.04;101096.44;5031245;28;20132;-69
2022/03/23 11:40:56;;;;;;;5.40;2.40;;;;;;;16.75;26.01;101098.19;5031429;28;20025;-69
2022/03/23 11:43:24;;;;;;;3.90;2.45;;;;;;;16.20;26.14;101040.97;5031049;28;20034;-70
2022/03/23 11:45:52;;;;;;;5.93;2.55;;;;;;;16.42;25.98;101036.78;5031084;28;20116;-70
2022/03/23 11:48:22;;;;;;;4.78;2.38;;;;;;;16.30;26.26;101068.03;5029478;28;20529;-69
2022/03/23 11:51:18;;;;;;;6.68;2.55;;;;;;;17.19;26.05;101085.38;5031202;28;20038;-70
2022/03/23 11:54:03;;;;;;;4.10;2.47;;;;;;;16.74;25.86;101092.19;5027041;28;20026;-71